Nearby METAR Reports

 

KVTA - Newark, Ohio, USA
Distance from station: SE 2mi, 3km
Updated: 02/25/2018 4:54pm
Clear
Clear
 Wind from WSW
Wind: WSW 12 mph , 19 km/h
Temperature: 48°F , 9°C
Wind Chill: 43°F , 6°C
Dew Point: 36°F , 2°C
Humidity: 62%
Barometer: 30.02 inHg , 1016.6 hPa
Clouds: Clear
Visibility: 10 miles , 16 km
2018/02/25 21:54 KVTA 252154Z AUTO 24010KT 10SM CLR 09/02 A3002 RMK AO2 SLP164 T00940017
K4I3 - Mt Vernon/Knox, Ohio, USA
Distance from station: N 21mi, 33km
Updated: 02/25/2018 4:55pm
Clear
Clear
 Wind from WSW
Wind: WSW 12 mph , 19 km/h, Gust: 16 mph , 26 km/h
Temperature: 46°F , 8°C
Wind Chill: 40°F , 4°C
Dew Point: 34°F , 1°C
Humidity: 62%
Barometer: 30.01 inHg , 1016.3 hPa
Clouds: Clear
Visibility: 10 miles , 16 km
2018/02/25 21:55 K4I3 252155Z AUTO 25010G14KT 10SM CLR 08/01 A3001 RMK AO2
 
KCMH - Columbus, Ohio, USA
Distance from station: W 21mi, 34km
Updated: 02/25/2018 4:51pm
Overcast
Overcast
 Wind from SW
Wind: SW 10 mph , 17 km/h
Temperature: 48°F , 9°C
Wind Chill: 44°F , 7°C
Dew Point: 30°F , -1°C
Humidity: 50%
Barometer: 30.02 inHg , 1016.6 hPa
Clouds: Overcast
Visibility: 10 miles , 16 km
Cloud details: Overcast 25000 ft
2018/02/25 21:51 KCMH 252151Z 23009KT 10SM OVC250 09/M01 A3002 RMK AO2 SLP165 T00941006 $
KLHQ - Lancaster, Ohio, USA
Distance from station: SSW 22mi, 36km
Updated: 02/25/2018 4:53pm
Clear
Clear
 Wind from W
Wind: W 9 mph , 15 km/h
Temperature: 48°F , 9°C
Wind Chill: 44°F , 7°C
Dew Point: 36°F , 2°C
Humidity: 62%
Barometer: 30.04 inHg , 1017.3 hPa
Clouds: Clear
Visibility: 10 miles , 16 km
2018/02/25 21:53 KLHQ 252153Z AUTO 26008KT 10SM CLR 09/02 A3004 RMK AO2 SLP171 T00940017 $
 
KLCK - Rickenbacker Ang, Ohio, USA
Distance from station: SW 27mi, 44km
Updated: 02/25/2018 4:35pm
Clear
Clear
 Wind from WSW
Wind: WSW 10 mph , 17 km/h
Temperature: 48°F , 9°C
Wind Chill: 44°F , 7°C
Dew Point: 34°F , 1°C
Humidity: 58%
Barometer: 30.03 inHg , 1016.9 hPa
Clouds: Clear
Visibility: 10 miles , 16 km
2018/02/25 21:35 KLCK 252135Z AUTO 25009KT 10SM CLR 09/01 A3003 RMK AO2 T00880007
KOSU - Columbus/St Univ, Ohio, USA
Distance from station: W 32mi, 51km
Updated: 02/25/2018 4:53pm
Clear
Clear
 Wind from W
Wind: W 10 mph , 17 km/h
Temperature: 46°F , 8°C
Wind Chill: 41°F , 5°C
Dew Point: 34°F , 1°C
Humidity: 62%
Barometer: 30.02 inHg , 1016.6 hPa
Clouds: Clear
Visibility: 10 miles , 16 km
2018/02/25 21:53 KOSU 252153Z 26009KT 10SM CLR 08/01 A3002 RMK AO2 SLP166 T00830006
 
KZZV - Zanesville, Ohio, USA
Distance from station: E 32mi, 51km
Updated: 02/25/2018 4:53pm
Clear
Clear
 Wind from W
Wind: W 9 mph , 15 km/h
Temperature: 50°F , 10°C
Wind Chill: 46°F , 8°C
Dew Point: 34°F , 1°C
Humidity: 54%
Barometer: 30.02 inHg , 1016.6 hPa
Clouds: Clear
Visibility: 10 miles , 16 km
2018/02/25 21:53 KZZV 252153Z AUTO 26008KT 10SM CLR 10/01 A3002 RMK AO2 SLP163 T01000011
KTZR - Columbus/Bolton, Ohio, USA
Distance from station: WSW 36mi, 57km
Updated: 02/25/2018 4:47pm
Clear
Clear
 Wind from WSW
Wind: WSW 14 mph , 22 km/h, Gust: 20 mph , 31 km/h
Temperature: 46°F , 8°C
Wind Chill: 40°F , 4°C
Dew Point: 32°F , 0°C
Humidity: 57%
Barometer: 30.03 inHg , 1016.9 hPa
Clouds: Clear
Visibility: 10 miles , 16 km
2018/02/25 21:47 KTZR 252147Z 25012G17KT 10SM SKC 08/00 A3003
 
KDLZ - Delaware, Ohio, USA
Distance from station: WNW 37mi, 60km
Updated: 02/25/2018 4:55pm
Clear
Clear
 Wind from WSW
Wind: WSW 8 mph , 13 km/h, Gust: 18 mph , 30 km/h
Temperature: 45°F , 7°C
Wind Chill: 41°F , 5°C
Dew Point: 32°F , 0°C
Humidity: 61%
Barometer: 30.03 inHg , 1016.9 hPa
Clouds: Clear
Visibility: 10 miles , 16 km
2018/02/25 21:55 KDLZ 252155Z AUTO 25007G16KT 10SM CLR 07/00 A3003 RMK AO2
KMRT - Marysville, Ohio, USA
Distance from station: WNW 47mi, 76km
Updated: 02/25/2018 4:55pm
Clear
Clear
 Wind from W
Wind: W 10 mph , 17 km/h, Gust: 18 mph , 30 km/h
Temperature: 46°F , 8°C
Wind Chill: 41°F , 5°C
Dew Point: 34°F , 1°C
Humidity: 62%
Barometer: 30.03 inHg , 1016.9 hPa
Clouds: Clear
Visibility: 10 miles , 16 km
2018/02/25 21:55 KMRT 252155Z AUTO 28009G16KT 10SM CLR 08/01 A3003 RMK AO2 T00760006
 
KMNN - Marion, Ohio, USA
Distance from station: NW 50mi, 81km
Updated: 02/25/2018 4:53pm
Few Clouds
Few Clouds
 Wind from W
Wind: W 10 mph , 17 km/h, Gust: 20 mph , 31 km/h
Temperature: 45°F , 7°C
Wind Chill: 40°F , 4°C
Dew Point: 34°F , 1°C
Humidity: 66%
Barometer: 30.01 inHg , 1016.3 hPa
Clouds: Few Clouds
Visibility: 10 miles , 16 km
Cloud details: Few Clouds 3200 ft
2018/02/25 21:53 KMNN 252153Z AUTO 26009G17KT 10SM FEW032 07/01 A3001 RMK AO2 SLP166 T00720011